sensor_id;sensor_type;location;lat;lon;timestamp;temperature;humidity
5226;DHT22;2632;51.666;7.146;2023-11-21T00:02:26;9.40;99.90
5226;DHT22;2632;51.666;7.146;2023-11-21T00:04:54;9.40;99.90
5226;DHT22;2632;51.666;7.146;2023-11-21T00:07:20;9.40;99.90
5226;DHT22;2632;51.666;7.146;2023-11-21T00:09:48;9.40;99.90
5226;DHT22;2632;51.666;7.146;2023-11-21T00:12:15;9.40;99.90
5226;DHT22;2632;51.666;7.146;2023-11-21T00:14:42;9.50;99.90
5226;DHT22;2632;51.666;7.146;2023-11-21T00:17:08;9.50;99.90
5226;DHT22;2632;51.666;7.146;2023-11-21T00:19:35;9.50;99.90
5226;DHT22;2632;51.666;7.146;2023-11-21T00:22:02;9.50;99.90
5226;DHT22;2632;51.666;7.146;2023-11-21T00:24:29;9.50;99.90
5226;DHT22;2632;51.666;7.146;2023-11-21T00:26:56;9.50;99.90
5226;DHT22;2632;51.666;7.146;2023-11-21T00:29:22;9.60;99.90
5226;DHT22;2632;51.666;7.146;2023-11-21T00:31:49;9.60;99.90
5226;DHT22;2632;51.666;7.146;2023-11-21T00:34:16;9.70;99.90
5226;DHT22;2632;51.666;7.146;2023-11-21T00:36:42;9.70;99.90
5226;DHT22;2632;51.666;7.146;2023-11-21T00:39:09;9.70;99.90
5226;DHT22;2632;51.666;7.146;2023-11-21T00:41:36;9.70;99.90
5226;DHT22;2632;51.666;7.146;2023-11-21T00:44:03;9.70;99.90
5226;DHT22;2632;51.666;7.146;2023-11-21T00:46:30;9.80;99.90
5226;DHT22;2632;51.666;7.146;2023-11-21T00:48:57;9.80;99.90
5226;DHT22;2632;51.666;7.146;2023-11-21T00:51:24;9.80;99.90
5226;DHT22;2632;51.666;7.146;2023-11-21T00:53:51;9.80;99.90
5226;DHT22;2632;51.666;7.146;2023-11-21T00:56:18;9.70;99.90
5226;DHT22;2632;51.666;7.146;2023-11-21T00:58:44;9.70;99.90
5226;DHT22;2632;51.666;7.146;2023-11-21T01:01:16;9.70;99.90
5226;DHT22;2632;51.666;7.146;2023-11-21T01:03:43;9.70;99.90
5226;DHT22;2632;51.666;7.146;2023-11-21T01:06:10;9.70;99.90
5226;DHT22;2632;51.666;7.146;2023-11-21T01:08:40;9.70;99.90
5226;DHT22;2632;51.666;7.146;2023-11-21T01:11:06;9.60;99.90
5226;DHT22;2632;51.666;7.146;2023-11-21T01:13:34;9.60;99.90
5226;DHT22;2632;51.666;7.146;2023-11-21T01:16:02;9.60;99.90
5226;DHT22;2632;51.666;7.146;2023-11-21T01:18:30;9.60;99.90
5226;DHT22;2632;51.666;7.146;2023-11-21T01:20:56;9.60;99.90
5226;DHT22;2632;51.666;7.146;2023-11-21T01:23:24;9.50;99.90
5226;DHT22;2632;51.666;7.146;2023-11-21T01:25:50;9.50;99.90
5226;DHT22;2632;51.666;7.146;2023-11-21T01:28:18;9.40;99.90
5226;DHT22;2632;51.666;7.146;2023-11-21T01:30:46;9.30;99.90
5226;DHT22;2632;51.666;7.146;2023-11-21T01:33:13;9.30;99.90
5226;DHT22;2632;51.666;7.146;2023-11-21T01:35:42;9.20;99.90
5226;DHT22;2632;51.666;7.146;2023-11-21T01:38:09;9.10;99.90
5226;DHT22;2632;51.666;7.146;2023-11-21T01:40:36;9.10;99.90
5226;DHT22;2632;51.666;7.146;2023-11-21T01:43:03;9.10;99.90
5226;DHT22;2632;51.666;7.146;2023-11-21T01:45:32;9.00;99.90
5226;DHT22;2632;51.666;7.146;2023-11-21T01:48:00;8.90;99.90
5226;DHT22;2632;51.666;7.146;2023-11-21T01:50:27;8.90;99.90
5226;DHT22;2632;51.666;7.146;2023-11-21T01:52:55;8.90;99.90
5226;DHT22;2632;51.666;7.146;2023-11-21T01:55:22;8.80;99.90
5226;DHT22;2632;51.666;7.146;2023-11-21T01:57:55;8.80;99.90
5226;DHT22;2632;51.666;7.146;2023-11-21T02:00:22;8.70;99.90
5226;DHT22;2632;51.666;7.146;2023-11-21T02:02:50;8.60;99.90
5226;DHT22;2632;51.666;7.146;2023-11-21T02:05:18;8.60;99.90
5226;DHT22;2632;51.666;7.146;2023-11-21T02:07:46;8.50;99.90
5226;DHT22;2632;51.666;7.146;2023-11-21T02:10:16;8.40;99.90
5226;DHT22;2632;51.666;7.146;2023-11-21T02:12:44;8.50;99.90
5226;DHT22;2632;51.666;7.146;2023-11-21T02:15:13;8.40;99.90
5226;DHT22;2632;51.666;7.146;2023-11-21T02:17:53;8.30;99.90
5226;DHT22;2632;51.666;7.146;2023-11-21T02:20:21;8.30;99.90
5226;DHT22;2632;51.666;7.146;2023-11-21T02:22:50;8.20;99.90
5226;DHT22;2632;51.666;7.146;2023-11-21T02:25:27;8.10;99.90
5226;DHT22;2632;51.666;7.146;2023-11-21T02:27:55;8.10;99.90
5226;DHT22;2632;51.666;7.146;2023-11-21T02:30:23;8.10;99.90
5226;DHT22;2632;51.666;7.146;2023-11-21T02:32:51;8.00;99.90
5226;DHT22;2632;51.666;7.146;2023-11-21T02:35:23;8.00;99.90
5226;DHT22;2632;51.666;7.146;2023-11-21T02:37:50;8.00;99.90
5226;DHT22;2632;51.666;7.146;2023-11-21T02:40:16;8.00;99.90
5226;DHT22;2632;51.666;7.146;2023-11-21T02:42:51;8.00;99.90
5226;DHT22;2632;51.666;7.146;2023-11-21T02:45:19;8.10;99.90
5226;DHT22;2632;51.666;7.146;2023-11-21T02:47:47;8.00;99.90
5226;DHT22;2632;51.666;7.146;2023-11-21T02:50:16;7.90;99.90
5226;DHT22;2632;51.666;7.146;2023-11-21T02:52:42;8.00;99.90
5226;DHT22;2632;51.666;7.146;2023-11-21T02:55:09;8.00;99.90
5226;DHT22;2632;51.666;7.146;2023-11-21T02:57:36;8.00;99.90
5226;DHT22;2632;51.666;7.146;2023-11-21T03:00:03;8.00;99.90
5226;DHT22;2632;51.666;7.146;2023-11-21T03:02:34;8.00;99.90
5226;DHT22;2632;51.666;7.146;2023-11-21T03:05:06;8.10;99.90
5226;DHT22;2632;51.666;7.146;2023-11-21T03:07:33;8.10;99.90
5226;DHT22;2632;51.666;7.146;2023-11-21T03:10:00;8.00;99.90
5226;DHT22;2632;51.666;7.146;2023-11-21T03:12:27;8.00;99.90
5226;DHT22;2632;51.666;7.146;2023-11-21T03:14:53;8.00;99.90
5226;DHT22;2632;51.666;7.146;2023-11-21T03:17:20;7.90;99.90
5226;DHT22;2632;51.666;7.146;2023-11-21T03:19:47;7.90;99.90
5226;DHT22;2632;51.666;7.146;2023-11-21T03:22:14;7.90;99.90
5226;DHT22;2632;51.666;7.146;2023-11-21T03:24:40;8.00;99.90
5226;DHT22;2632;51.666;7.146;2023-11-21T03:27:07;8.00;99.90
5226;DHT22;2632;51.666;7.146;2023-11-21T03:29:34;8.00;99.90
5226;DHT22;2632;51.666;7.146;2023-11-21T03:32:01;7.90;99.90
5226;DHT22;2632;51.666;7.146;2023-11-21T03:34:28;7.90;99.90
5226;DHT22;2632;51.666;7.146;2023-11-21T03:36:55;8.00;99.90
5226;DHT22;2632;51.666;7.146;2023-11-21T03:39:22;8.00;99.90
5226;DHT22;2632;51.666;7.146;2023-11-21T03:41:49;8.00;99.90
5226;DHT22;2632;51.666;7.146;2023-11-21T03:44:16;7.90;99.90
5226;DHT22;2632;51.666;7.146;2023-11-21T03:46:44;8.00;99.90
5226;DHT22;2632;51.666;7.146;2023-11-21T03:49:10;8.00;99.90
5226;DHT22;2632;51.666;7.146;2023-11-21T03:51:37;8.00;99.90
5226;DHT22;2632;51.666;7.146;2023-11-21T03:54:04;7.90;99.90
5226;DHT22;2632;51.666;7.146;2023-11-21T03:56:31;8.00;99.90
5226;DHT22;2632;51.666;7.146;2023-11-21T03:58:57;8.10;99.90
5226;DHT22;2632;51.666;7.146;2023-11-21T04:01:24;8.00;99.90
5226;DHT22;2632;51.666;7.146;2023-11-21T04:03:51;8.00;99.90
5226;DHT22;2632;51.666;7.146;2023-11-21T04:06:18;8.00;99.90
5226;DHT22;2632;51.666;7.146;2023-11-21T04:08:45;8.00;99.90
5226;DHT22;2632;51.666;7.146;2023-11-21T04:11:12;8.10;99.90
5226;DHT22;2632;51.666;7.146;2023-11-21T04:13:40;8.10;99.90
5226;DHT22;2632;51.666;7.146;2023-11-21T04:16:08;8.10;99.90
5226;DHT22;2632;51.666;7.146;2023-11-21T04:18:36;8.10;99.90
5226;DHT22;2632;51.666;7.146;2023-11-21T04:21:07;8.10;99.90
5226;DHT22;2632;51.666;7.146;2023-11-21T04:23:35;8.10;99.90
5226;DHT22;2632;51.666;7.146;2023-11-21T04:26:01;8.10;99.90
5226;DHT22;2632;51.666;7.146;2023-11-21T04:28:29;8.10;99.90
5226;DHT22;2632;51.666;7.146;2023-11-21T04:30:56;8.20;99.90
5226;DHT22;2632;51.666;7.146;2023-11-21T04:33:23;8.20;99.90
5226;DHT22;2632;51.666;7.146;2023-11-21T04:35:50;8.20;99.90
5226;DHT22;2632;51.666;7.146;2023-11-21T04:38:16;8.20;99.90
5226;DHT22;2632;51.666;7.146;2023-11-21T04:40:43;8.20;99.90
5226;DHT22;2632;51.666;7.146;2023-11-21T04:43:10;8.20;99.90
5226;DHT22;2632;51.666;7.146;2023-11-21T04:45:37;8.30;99.90
5226;DHT22;2632;51.666;7.146;2023-11-21T04:48:03;8.30;99.90
5226;DHT22;2632;51.666;7.146;2023-11-21T04:50:30;8.30;99.90
5226;DHT22;2632;51.666;7.146;2023-11-21T04:52:57;8.40;99.90
5226;DHT22;2632;51.666;7.146;2023-11-21T04:55:24;8.40;99.90
5226;DHT22;2632;51.666;7.146;2023-11-21T04:57:54;8.40;99.90
5226;DHT22;2632;51.666;7.146;2023-11-21T05:00:21;8.40;99.90
5226;DHT22;2632;51.666;7.146;2023-11-21T05:02:48;8.40;99.90
5226;DHT22;2632;51.666;7.146;2023-11-21T05:05:15;8.40;99.90
5226;DHT22;2632;51.666;7.146;2023-11-21T05:07:42;8.50;99.90
5226;DHT22;2632;51.666;7.146;2023-11-21T05:10:09;8.50;99.90
5226;DHT22;2632;51.666;7.146;2023-11-21T05:12:40;8.60;99.90
5226;DHT22;2632;51.666;7.146;2023-11-21T05:15:08;8.60;99.90
5226;DHT22;2632;51.666;7.146;2023-11-21T05:17:39;8.60;99.90
5226;DHT22;2632;51.666;7.146;2023-11-21T05:20:10;8.60;99.90
5226;DHT22;2632;51.666;7.146;2023-11-21T05:22:37;8.60;99.90
5226;DHT22;2632;51.666;7.146;2023-11-21T05:25:05;8.70;99.90
5226;DHT22;2632;51.666;7.146;2023-11-21T05:27:34;8.60;99.90
5226;DHT22;2632;51.666;7.146;2023-11-21T05:30:04;8.50;99.90
5226;DHT22;2632;51.666;7.146;2023-11-21T05:32:35;8.50;99.90
5226;DHT22;2632;51.666;7.146;2023-11-21T05:35:02;8.40;99.90
5226;DHT22;2632;51.666;7.146;2023-11-21T05:37:28;8.50;99.90
5226;DHT22;2632;51.666;7.146;2023-11-21T05:39:55;8.50;99.90
5226;DHT22;2632;51.666;7.146;2023-11-21T05:42:23;8.50;99.90
5226;DHT22;2632;51.666;7.146;2023-11-21T05:44:50;8.50;99.90
5226;DHT22;2632;51.666;7.146;2023-11-21T05:47:17;8.50;99.90
5226;DHT22;2632;51.666;7.146;2023-11-21T05:49:44;8.50;99.90
5226;DHT22;2632;51.666;7.146;2023-11-21T05:52:12;8.50;99.90
5226;DHT22;2632;51.666;7.146;2023-11-21T05:54:39;8.50;99.90
5226;DHT22;2632;51.666;7.146;2023-11-21T05:57:05;8.50;99.90
5226;DHT22;2632;51.666;7.146;2023-11-21T05:59:32;8.50;99.90
5226;DHT22;2632;51.666;7.146;2023-11-21T06:01:59;8.50;99.90
5226;DHT22;2632;51.666;7.146;2023-11-21T06:04:25;8.50;99.90
5226;DHT22;2632;51.666;7.146;2023-11-21T06:06:52;8.50;99.90
5226;DHT22;2632;51.666;7.146;2023-11-21T06:09:20;8.60;99.90
5226;DHT22;2632;51.666;7.146;2023-11-21T06:11:47;8.60;99.90
5226;DHT22;2632;51.666;7.146;2023-11-21T06:14:14;8.60;99.90
5226;DHT22;2632;51.666;7.146;2023-11-21T06:16:44;8.60;99.90
5226;DHT22;2632;51.666;7.146;2023-11-21T06:19:12;8.70;99.90
5226;DHT22;2632;51.666;7.146;2023-11-21T06:21:38;8.70;99.90
5226;DHT22;2632;51.666;7.146;2023-11-21T06:24:05;8.70;99.90
5226;DHT22;2632;51.666;7.146;2023-11-21T06:26:33;8.70;99.90
5226;DHT22;2632;51.666;7.146;2023-11-21T06:29:01;8.80;99.90
5226;DHT22;2632;51.666;7.146;2023-11-21T06:31:30;8.80;99.90
5226;DHT22;2632;51.666;7.146;2023-11-21T06:33:56;8.80;99.90
5226;DHT22;2632;51.666;7.146;2023-11-21T06:36:26;8.80;99.90
5226;DHT22;2632;51.666;7.146;2023-11-21T06:38:53;8.70;99.90
5226;DHT22;2632;51.666;7.146;2023-11-21T06:41:20;8.80;99.90
5226;DHT22;2632;51.666;7.146;2023-11-21T06:43:47;8.80;99.90
5226;DHT22;2632;51.666;7.146;2023-11-21T06:46:14;8.90;99.90
5226;DHT22;2632;51.666;7.146;2023-11-21T06:48:43;8.80;99.90
5226;DHT22;2632;51.666;7.146;2023-11-21T06:51:10;8.80;99.90
5226;DHT22;2632;51.666;7.146;2023-11-21T06:53:37;8.90;99.90
5226;DHT22;2632;51.666;7.146;2023-11-21T06:56:14;8.80;99.90
5226;DHT22;2632;51.666;7.146;2023-11-21T06:58:41;8.90;99.90
5226;DHT22;2632;51.666;7.146;2023-11-21T07:01:08;8.90;99.90
5226;DHT22;2632;51.666;7.146;2023-11-21T07:03:35;8.90;99.90
5226;DHT22;2632;51.666;7.146;2023-11-21T07:06:04;9.00;99.90
5226;DHT22;2632;51.666;7.146;2023-11-21T07:08:31;9.10;99.90
5226;DHT22;2632;51.666;7.146;2023-11-21T07:10:58;9.20;99.90
5226;DHT22;2632;51.666;7.146;2023-11-21T07:13:24;9.20;99.90
5226;DHT22;2632;51.666;7.146;2023-11-21T07:15:51;9.10;99.90
5226;DHT22;2632;51.666;7.146;2023-11-21T07:18:21;9.20;99.90
5226;DHT22;2632;51.666;7.146;2023-11-21T07:20:47;9.20;99.90
5226;DHT22;2632;51.666;7.146;2023-11-21T07:23:14;9.30;99.90
5226;DHT22;2632;51.666;7.146;2023-11-21T07:25:42;9.30;99.90
5226;DHT22;2632;51.666;7.146;2023-11-21T07:28:09;9.30;99.90
5226;DHT22;2632;51.666;7.146;2023-11-21T07:30:36;9.30;99.90
5226;DHT22;2632;51.666;7.146;2023-11-21T07:33:04;9.30;99.90
5226;DHT22;2632;51.666;7.146;2023-11-21T07:35:30;9.30;99.90
5226;DHT22;2632;51.666;7.146;2023-11-21T07:37:57;9.30;99.90
5226;DHT22;2632;51.666;7.146;2023-11-21T07:40:24;9.30;99.90
5226;DHT22;2632;51.666;7.146;2023-11-21T07:42:51;9.30;99.90
5226;DHT22;2632;51.666;7.146;2023-11-21T07:45:18;9.30;99.90
5226;DHT22;2632;51.666;7.146;2023-11-21T07:47:44;9.20;99.90
5226;DHT22;2632;51.666;7.146;2023-11-21T07:50:11;9.20;99.90
5226;DHT22;2632;51.666;7.146;2023-11-21T07:52:39;9.20;99.90
5226;DHT22;2632;51.666;7.146;2023-11-21T07:55:06;9.20;99.90
5226;DHT22;2632;51.666;7.146;2023-11-21T07:57:34;10.90;99.90
5226;DHT22;2632;51.666;7.146;2023-11-21T08:00:00;9.30;99.90
5226;DHT22;2632;51.666;7.146;2023-11-21T08:02:27;9.30;99.90
5226;DHT22;2632;51.666;7.146;2023-11-21T08:04:54;9.30;99.90
5226;DHT22;2632;51.666;7.146;2023-11-21T08:07:23;9.30;99.90
5226;DHT22;2632;51.666;7.146;2023-11-21T08:09:49;9.20;99.90
5226;DHT22;2632;51.666;7.146;2023-11-21T08:12:16;9.30;99.90
5226;DHT22;2632;51.666;7.146;2023-11-21T08:14:43;9.20;99.90
5226;DHT22;2632;51.666;7.146;2023-11-21T08:17:11;9.30;99.90
5226;DHT22;2632;51.666;7.146;2023-11-21T08:19:40;9.40;99.90
5226;DHT22;2632;51.666;7.146;2023-11-21T08:22:06;9.40;99.90
5226;DHT22;2632;51.666;7.146;2023-11-21T08:24:34;9.30;99.90
5226;DHT22;2632;51.666;7.146;2023-11-21T08:27:01;9.40;99.90
5226;DHT22;2632;51.666;7.146;2023-11-21T08:29:27;9.40;99.90
5226;DHT22;2632;51.666;7.146;2023-11-21T08:31:54;9.40;99.90
5226;DHT22;2632;51.666;7.146;2023-11-21T08:34:21;9.40;99.90
5226;DHT22;2632;51.666;7.146;2023-11-21T08:36:47;9.40;99.90
5226;DHT22;2632;51.666;7.146;2023-11-21T08:39:14;9.40;99.90
5226;DHT22;2632;51.666;7.146;2023-11-21T08:41:42;9.40;99.90
5226;DHT22;2632;51.666;7.146;2023-11-21T08:44:09;9.40;99.90
5226;DHT22;2632;51.666;7.146;2023-11-21T08:46:36;9.50;99.90
5226;DHT22;2632;51.666;7.146;2023-11-21T08:49:04;9.50;99.90
5226;DHT22;2632;51.666;7.146;2023-11-21T08:51:31;9.50;99.90
5226;DHT22;2632;51.666;7.146;2023-11-21T08:53:58;9.50;99.90
5226;DHT22;2632;51.666;7.146;2023-11-21T08:56:27;9.40;99.90
5226;DHT22;2632;51.666;7.146;2023-11-21T08:58:53;9.40;99.90
5226;DHT22;2632;51.666;7.146;2023-11-21T09:01:20;9.50;99.90
5226;DHT22;2632;51.666;7.146;2023-11-21T09:03:47;9.50;99.90
5226;DHT22;2632;51.666;7.146;2023-11-21T09:06:16;9.50;99.90
5226;DHT22;2632;51.666;7.146;2023-11-21T09:08:43;9.50;99.90
5226;DHT22;2632;51.666;7.146;2023-11-21T09:11:10;9.50;99.90
5226;DHT22;2632;51.666;7.146;2023-11-21T09:13:36;9.60;99.90
5226;DHT22;2632;51.666;7.146;2023-11-21T09:16:04;9.60;99.90
5226;DHT22;2632;51.666;7.146;2023-11-21T09:18:32;9.50;99.90
5226;DHT22;2632;51.666;7.146;2023-11-21T09:20:59;9.50;99.90
5226;DHT22;2632;51.666;7.146;2023-11-21T09:23:27;9.50;99.90
5226;DHT22;2632;51.666;7.146;2023-11-21T09:25:54;10.10;99.90
5226;DHT22;2632;51.666;7.146;2023-11-21T09:28:23;9.60;99.90
5226;DHT22;2632;51.666;7.146;2023-11-21T09:30:50;9.60;99.90
5226;DHT22;2632;51.666;7.146;2023-11-21T09:33:16;9.70;99.90
5226;DHT22;2632;51.666;7.146;2023-11-21T09:35:43;9.70;99.90
5226;DHT22;2632;51.666;7.146;2023-11-21T09:38:10;9.70;99.90
5226;DHT22;2632;51.666;7.146;2023-11-21T09:40:38;9.80;99.90
5226;DHT22;2632;51.666;7.146;2023-11-21T09:43:17;9.70;99.90
5226;DHT22;2632;51.666;7.146;2023-11-21T09:45:54;9.80;99.90
5226;DHT22;2632;51.666;7.146;2023-11-21T09:48:24;9.90;99.90
5226;DHT22;2632;51.666;7.146;2023-11-21T09:50:53;9.90;99.90
5226;DHT22;2632;51.666;7.146;2023-11-21T09:53:21;10.10;99.90
5226;DHT22;2632;51.666;7.146;2023-11-21T09:55:52;10.20;99.90
5226;DHT22;2632;51.666;7.146;2023-11-21T09:58:20;10.30;99.90
5226;DHT22;2632;51.666;7.146;2023-11-21T10:00:50;10.40;99.90
5226;DHT22;2632;51.666;7.146;2023-11-21T10:03:19;10.30;99.90
5226;DHT22;2632;51.666;7.146;2023-11-21T10:05:46;10.30;99.90
5226;DHT22;2632;51.666;7.146;2023-11-21T10:08:14;10.20;99.90
5226;DHT22;2632;51.666;7.146;2023-11-21T10:10:46;10.20;99.90
5226;DHT22;2632;51.666;7.146;2023-11-21T10:13:14;10.10;99.90
5226;DHT22;2632;51.666;7.146;2023-11-21T10:15:49;10.20;99.90
5226;DHT22;2632;51.666;7.146;2023-11-21T10:18:17;10.20;99.90
5226;DHT22;2632;51.666;7.146;2023-11-21T10:20:44;10.30;99.90
5226;DHT22;2632;51.666;7.146;2023-11-21T10:23:19;10.30;99.90
5226;DHT22;2632;51.666;7.146;2023-11-21T10:25:46;10.40;99.90
5226;DHT22;2632;51.666;7.146;2023-11-21T10:28:12;10.40;99.90
5226;DHT22;2632;51.666;7.146;2023-11-21T10:30:39;10.50;99.90
5226;DHT22;2632;51.666;7.146;2023-11-21T10:33:07;10.50;99.90
5226;DHT22;2632;51.666;7.146;2023-11-21T10:35:44;10.50;99.90
5226;DHT22;2632;51.666;7.146;2023-11-21T10:38:14;10.60;99.90
5226;DHT22;2632;51.666;7.146;2023-11-21T10:40:41;10.50;99.90
5226;DHT22;2632;51.666;7.146;2023-11-21T10:43:09;10.60;99.90
5226;DHT22;2632;51.666;7.146;2023-11-21T10:45:37;10.60;99.90
5226;DHT22;2632;51.666;7.146;2023-11-21T10:48:06;10.60;99.90
5226;DHT22;2632;51.666;7.146;2023-11-21T10:50:35;10.60;99.90
5226;DHT22;2632;51.666;7.146;2023-11-21T10:53:05;10.60;99.90
5226;DHT22;2632;51.666;7.146;2023-11-21T10:55:35;10.60;99.90
5226;DHT22;2632;51.666;7.146;2023-11-21T10:58:03;10.60;99.90
5226;DHT22;2632;51.666;7.146;2023-11-21T11:00:32;10.50;99.90
5226;DHT22;2632;51.666;7.146;2023-11-21T11:03:00;10.40;99.90
5226;DHT22;2632;51.666;7.146;2023-11-21T11:05:28;10.30;99.90
5226;DHT22;2632;51.666;7.146;2023-11-21T11:07:59;10.30;99.90
5226;DHT22;2632;51.666;7.146;2023-11-21T11:10:30;10.20;99.90
5226;DHT22;2632;51.666;7.146;2023-11-21T11:12:58;10.20;99.90
5226;DHT22;2632;51.666;7.146;2023-11-21T11:15:26;10.30;99.90
5226;DHT22;2632;51.666;7.146;2023-11-21T11:17:54;10.40;99.90
5226;DHT22;2632;51.666;7.146;2023-11-21T11:20:31;10.40;99.90
5226;DHT22;2632;51.666;7.146;2023-11-21T11:28:51;10.40;99.90
5226;DHT22;2632;51.666;7.146;2023-11-21T11:31:37;10.50;99.90
5226;DHT22;2632;51.666;7.146;2023-11-21T11:34:36;10.40;99.90
5226;DHT22;2632;51.666;7.146;2023-11-21T11:37:07;10.40;99.90
5226;DHT22;2632;51.666;7.146;2023-11-21T11:42:13;10.50;99.90
5226;DHT22;2632;51.666;7.146;2023-11-21T11:47:14;10.60;99.90
5226;DHT22;2632;51.666;7.146;2023-11-21T11:50:08;10.60;99.90
5226;DHT22;2632;51.666;7.146;2023-11-21T11:52:48;10.70;99.90
5226;DHT22;2632;51.666;7.146;2023-11-21T11:55:18;10.80;99.90
5226;DHT22;2632;51.666;7.146;2023-11-21T11:57:46;10.80;99.90
5226;DHT22;2632;51.666;7.146;2023-11-21T12:00:18;10.70;99.90
5226;DHT22;2632;51.666;7.146;2023-11-21T12:02:53;10.60;99.90
5226;DHT22;2632;51.666;7.146;2023-11-21T12:05:21;10.60;99.90
5226;DHT22;2632;51.666;7.146;2023-11-21T12:07:51;10.60;99.90
5226;DHT22;2632;51.666;7.146;2023-11-21T12:10:23;10.60;99.90
5226;DHT22;2632;51.666;7.146;2023-11-21T12:12:55;10.60;99.90
5226;DHT22;2632;51.666;7.146;2023-11-21T12:15:23;10.60;99.90
5226;DHT22;2632;51.666;7.146;2023-11-21T12:17:51;10.60;99.90
5226;DHT22;2632;51.666;7.146;2023-11-21T12:20:23;10.70;99.90
5226;DHT22;2632;51.666;7.146;2023-11-21T12:22:54;10.60;99.90
5226;DHT22;2632;51.666;7.146;2023-11-21T12:25:23;10.60;99.90
5226;DHT22;2632;51.666;7.146;2023-11-21T12:27:51;10.60;99.90
5226;DHT22;2632;51.666;7.146;2023-11-21T12:30:20;10.60;99.90
5226;DHT22;2632;51.666;7.146;2023-11-21T12:32:52;10.60;99.90
5226;DHT22;2632;51.666;7.146;2023-11-21T12:35:23;10.60;99.90
5226;DHT22;2632;51.666;7.146;2023-11-21T12:37:51;11.00;99.90
5226;DHT22;2632;51.666;7.146;2023-11-21T12:40:19;10.60;99.90
5226;DHT22;2632;51.666;7.146;2023-11-21T12:42:47;10.60;99.90
5226;DHT22;2632;51.666;7.146;2023-11-21T12:47:49;10.60;99.90
5226;DHT22;2632;51.666;7.146;2023-11-21T12:50:20;10.60;99.90
5226;DHT22;2632;51.666;7.146;2023-11-21T12:52:52;10.60;99.90
5226;DHT22;2632;51.666;7.146;2023-11-21T12:55:21;10.60;99.90
5226;DHT22;2632;51.666;7.146;2023-11-21T12:57:52;10.60;99.90
5226;DHT22;2632;51.666;7.146;2023-11-21T13:00:35;10.60;99.90
5226;DHT22;2632;51.666;7.146;2023-11-21T13:03:06;10.50;99.90
5226;DHT22;2632;51.666;7.146;2023-11-21T13:05:36;10.50;99.90
5226;DHT22;2632;51.666;7.146;2023-11-21T13:08:07;10.50;99.90
5226;DHT22;2632;51.666;7.146;2023-11-21T13:10:35;10.50;99.90
5226;DHT22;2632;51.666;7.146;2023-11-21T13:13:06;10.50;99.90
5226;DHT22;2632;51.666;7.146;2023-11-21T13:15:39;10.50;99.90
5226;DHT22;2632;51.666;7.146;2023-11-21T13:18:07;10.50;99.90
5226;DHT22;2632;51.666;7.146;2023-11-21T13:20:34;10.40;99.90
5226;DHT22;2632;51.666;7.146;2023-11-21T13:23:08;10.40;99.90
5226;DHT22;2632;51.666;7.146;2023-11-21T13:25:34;10.40;99.90
5226;DHT22;2632;51.666;7.146;2023-11-21T13:28:03;10.40;99.90
5226;DHT22;2632;51.666;7.146;2023-11-21T13:30:30;10.40;99.90
5226;DHT22;2632;51.666;7.146;2023-11-21T13:33:04;10.40;99.90
5226;DHT22;2632;51.666;7.146;2023-11-21T13:35:36;10.50;99.90
5226;DHT22;2632;51.666;7.146;2023-11-21T13:38:15;10.50;99.90
5226;DHT22;2632;51.666;7.146;2023-11-21T13:40:48;10.50;99.90
5226;DHT22;2632;51.666;7.146;2023-11-21T13:43:17;10.50;99.90
5226;DHT22;2632;51.666;7.146;2023-11-21T13:45:48;10.40;99.90
5226;DHT22;2632;51.666;7.146;2023-11-21T13:48:25;10.40;99.90
5226;DHT22;2632;51.666;7.146;2023-11-21T13:50:58;10.40;99.90
5226;DHT22;2632;51.666;7.146;2023-11-21T13:53:27;10.40;99.90
5226;DHT22;2632;51.666;7.146;2023-11-21T13:55:54;10.40;99.90
5226;DHT22;2632;51.666;7.146;2023-11-21T13:58:22;10.50;99.90
5226;DHT22;2632;51.666;7.146;2023-11-21T14:00:52;10.50;99.90
5226;DHT22;2632;51.666;7.146;2023-11-21T14:03:23;10.50;99.90
5226;DHT22;2632;51.666;7.146;2023-11-21T14:05:52;10.50;99.90
5226;DHT22;2632;51.666;7.146;2023-11-21T14:08:19;10.50;99.90
5226;DHT22;2632;51.666;7.146;2023-11-21T14:10:47;10.50;99.90
5226;DHT22;2632;51.666;7.146;2023-11-21T14:13:24;10.40;99.90
5226;DHT22;2632;51.666;7.146;2023-11-21T14:15:51;10.40;99.90
5226;DHT22;2632;51.666;7.146;2023-11-21T14:18:24;10.40;99.90
5226;DHT22;2632;51.666;7.146;2023-11-21T14:21:02;10.40;99.90
5226;DHT22;2632;51.666;7.146;2023-11-21T14:23:29;10.40;99.90
5226;DHT22;2632;51.666;7.146;2023-11-21T14:25:56;10.40;99.90
5226;DHT22;2632;51.666;7.146;2023-11-21T14:28:23;10.30;99.90
5226;DHT22;2632;51.666;7.146;2023-11-21T14:30:50;10.30;99.90
5226;DHT22;2632;51.666;7.146;2023-11-21T14:33:17;10.20;99.90
5226;DHT22;2632;51.666;7.146;2023-11-21T14:35:44;10.10;99.90
5226;DHT22;2632;51.666;7.146;2023-11-21T14:38:12;10.10;99.90
5226;DHT22;2632;51.666;7.146;2023-11-21T14:40:40;10.10;99.90
5226;DHT22;2632;51.666;7.146;2023-11-21T14:43:07;10.10;99.90
5226;DHT22;2632;51.666;7.146;2023-11-21T14:45:34;10.00;99.90
5226;DHT22;2632;51.666;7.146;2023-11-21T14:48:01;9.90;99.90
5226;DHT22;2632;51.666;7.146;2023-11-21T14:50:34;10.00;99.90
5226;DHT22;2632;51.666;7.146;2023-11-21T14:53:11;10.00;99.90
5226;DHT22;2632;51.666;7.146;2023-11-21T14:55:40;9.90;99.90
5226;DHT22;2632;51.666;7.146;2023-11-21T14:58:19;9.80;99.90
5226;DHT22;2632;51.666;7.146;2023-11-21T15:00:58;9.70;99.90
5226;DHT22;2632;51.666;7.146;2023-11-21T15:03:27;9.70;99.90
5226;DHT22;2632;51.666;7.146;2023-11-21T15:06:01;9.60;99.90
5226;DHT22;2632;51.666;7.146;2023-11-21T15:09:06;9.60;99.90
5226;DHT22;2632;51.666;7.146;2023-11-21T15:11:35;9.50;99.90
5226;DHT22;2632;51.666;7.146;2023-11-21T15:14:04;9.50;99.90
5226;DHT22;2632;51.666;7.146;2023-11-21T15:16:34;9.50;99.90
5226;DHT22;2632;51.666;7.146;2023-11-21T15:19:07;9.60;99.90
5226;DHT22;2632;51.666;7.146;2023-11-21T15:21:36;9.60;99.90
5226;DHT22;2632;51.666;7.146;2023-11-21T15:24:03;9.60;99.90
5226;DHT22;2632;51.666;7.146;2023-11-21T15:26:30;9.50;99.90
5226;DHT22;2632;51.666;7.146;2023-11-21T15:28:57;9.40;99.90
5226;DHT22;2632;51.666;7.146;2023-11-21T15:31:24;9.40;99.90
5226;DHT22;2632;51.666;7.146;2023-11-21T15:33:51;9.40;99.90
5226;DHT22;2632;51.666;7.146;2023-11-21T15:36:19;9.30;99.90
5226;DHT22;2632;51.666;7.146;2023-11-21T15:38:47;9.30;99.90
5226;DHT22;2632;51.666;7.146;2023-11-21T15:41:14;9.30;99.90
5226;DHT22;2632;51.666;7.146;2023-11-21T15:43:41;9.20;99.90
5226;DHT22;2632;51.666;7.146;2023-11-21T15:46:07;9.10;99.90
5226;DHT22;2632;51.666;7.146;2023-11-21T15:48:35;9.10;99.90
5226;DHT22;2632;51.666;7.146;2023-11-21T15:51:03;9.10;99.90
5226;DHT22;2632;51.666;7.146;2023-11-21T15:53:31;8.90;99.90
5226;DHT22;2632;51.666;7.146;2023-11-21T15:55:58;8.80;99.90
5226;DHT22;2632;51.666;7.146;2023-11-21T15:58:25;8.90;99.90
5226;DHT22;2632;51.666;7.146;2023-11-21T16:00:52;8.90;99.90
5226;DHT22;2632;51.666;7.146;2023-11-21T16:03:19;8.80;99.90
5226;DHT22;2632;51.666;7.146;2023-11-21T16:05:45;8.70;99.90
5226;DHT22;2632;51.666;7.146;2023-11-21T16:08:12;8.80;99.90
5226;DHT22;2632;51.666;7.146;2023-11-21T16:10:39;8.80;99.90
5226;DHT22;2632;51.666;7.146;2023-11-21T16:13:06;8.70;99.90
5226;DHT22;2632;51.666;7.146;2023-11-21T16:15:34;8.70;99.90
5226;DHT22;2632;51.666;7.146;2023-11-21T16:18:01;8.80;99.90
5226;DHT22;2632;51.666;7.146;2023-11-21T16:20:28;8.80;99.90
5226;DHT22;2632;51.666;7.146;2023-11-21T16:22:57;8.80;99.90
5226;DHT22;2632;51.666;7.146;2023-11-21T16:25:24;8.80;99.90
5226;DHT22;2632;51.666;7.146;2023-11-21T16:27:51;8.90;99.90
5226;DHT22;2632;51.666;7.146;2023-11-21T16:30:17;8.70;99.90
5226;DHT22;2632;51.666;7.146;2023-11-21T16:32:45;8.80;99.90
5226;DHT22;2632;51.666;7.146;2023-11-21T16:35:11;8.80;99.90